Time;durP1;ratioP1;P1;durP2;ratioP2;P2;SDS_P1;SDS_P2;PMS_P1;PMS_P2;Temp;Humidity;BMP_temperature;BMP_pressure;BME280_temperature;BME280_humidity;BME280_pressure;Samples;Min_cycle;Max_cycle;Signal;HPM_P1;HPM_P2
2021/01/31 00:02:17;;;;;;;;;33.50;30.50;;;;;;;;5026749;28;11464;-82
2021/01/31 00:04:47;;;;;;;;;27.75;27.75;;;;;;;;5032565;28;11552;-82
2021/01/31 00:07:15;;;;;;;;;22.75;22.75;;;;;;;;5036161;28;11545;-81
2021/01/31 00:09:42;;;;;;;;;23.75;23.00;;;;;;;;5032044;28;11914;-82
2021/01/31 00:12:10;;;;;;;;;24.00;20.75;;;;;;;;5034811;28;11552;-78
2021/01/31 00:14:37;;;;;;;;;30.50;25.00;;;;;;;;5036317;28;11606;-81
2021/01/31 00:17:04;;;;;;;;;23.25;21.00;;;;;;;;5029109;28;11594;-84
2021/01/31 00:19:31;;;;;;;;;21.50;19.00;;;;;;;;5043435;28;11492;-84
2021/01/31 00:21:59;;;;;;;;;21.25;20.00;;;;;;;;5031219;28;11510;-85
2021/01/31 00:24:26;;;;;;;;;22.75;19.25;;;;;;;;5018747;28;11637;-85
2021/01/31 00:26:53;;;;;;;;;25.50;23.25;;;;;;;;5026024;28;11542;-81
2021/01/31 00:29:20;;;;;;;;;24.50;20.75;;;;;;;;5024154;28;11537;-82
2021/01/31 00:31:48;;;;;;;;;26.00;23.50;;;;;;;;5028449;28;11489;-82
2021/01/31 00:34:16;;;;;;;;;28.00;22.25;;;;;;;;5028513;28;11520;-85
2021/01/31 00:36:44;;;;;;;;;24.00;23.25;;;;;;;;5040118;28;11515;-82
2021/01/31 00:39:11;;;;;;;;;20.25;19.25;;;;;;;;5029364;28;11519;-85
2021/01/31 00:41:39;;;;;;;;;26.00;23.50;;;;;;;;5006710;28;11500;-79
2021/01/31 00:44:08;;;;;;;;;24.50;22.50;;;;;;;;5033625;28;11578;-84
2021/01/31 00:46:36;;;;;;;;;22.25;22.25;;;;;;;;5028557;28;11511;-85
2021/01/31 00:49:03;;;;;;;;;22.25;22.25;;;;;;;;5036707;28;11486;-84
2021/01/31 00:51:30;;;;;;;;;23.50;20.25;;;;;;;;5038240;28;11564;-84
2021/01/31 00:53:57;;;;;;;;;25.75;23.25;;;;;;;;5031063;28;11633;-79
2021/01/31 00:56:23;;;;;;;;;17.50;17.50;;;;;;;;5042097;28;11559;-85
2021/01/31 00:58:51;;;;;;;;;22.50;19.75;;;;;;;;5027854;28;11498;-83
2021/01/31 01:01:19;;;;;;;;;23.00;18.00;;;;;;;;5024026;28;11446;-78
2021/01/31 01:03:46;;;;;;;;;17.25;17.25;;;;;;;;5029271;28;12283;-88
2021/01/31 01:06:13;;;;;;;;;22.50;22.50;;;;;;;;5010358;28;11580;-85
2021/01/31 01:08:41;;;;;;;;;24.00;21.00;;;;;;;;5031191;28;11587;-85
2021/01/31 01:11:08;;;;;;;;;25.50;24.50;;;;;;;;5028793;28;11566;-85
2021/01/31 01:13:35;;;;;;;;;18.25;18.25;;;;;;;;5025584;28;11585;-76
2021/01/31 01:16:02;;;;;;;;;26.75;26.75;;;;;;;;5031714;28;11566;-77
2021/01/31 01:18:29;;;;;;;;;26.25;26.25;;;;;;;;5008718;28;11567;-82
2021/01/31 01:20:56;;;;;;;;;27.00;19.75;;;;;;;;5026097;28;11503;-81
2021/01/31 01:23:23;;;;;;;;;24.25;24.25;;;;;;;;5025421;28;11498;-82
2021/01/31 01:25:49;;;;;;;;;28.00;21.25;;;;;;;;5035113;28;11599;-78
2021/01/31 01:28:16;;;;;;;;;23.00;22.50;;;;;;;;5030796;28;12316;-84
2021/01/31 01:30:43;;;;;;;;;26.75;26.00;;;;;;;;5027921;28;11448;-84
2021/01/31 01:33:11;;;;;;;;;26.50;24.25;;;;;;;;5032574;28;11520;-82
2021/01/31 01:35:37;;;;;;;;;24.75;22.50;;;;;;;;5034629;28;11483;-78
2021/01/31 01:38:04;;;;;;;;;24.25;23.50;;;;;;;;5031159;28;12336;-85
2021/01/31 01:40:35;;;;;;;;;27.50;22.75;;;;;;;;5026588;28;11537;-84
2021/01/31 01:43:03;;;;;;;;;31.25;27.25;;;;;;;;5013650;28;11519;-83
2021/01/31 01:45:31;;;;;;;;;30.00;27.00;;;;;;;;5023028;28;11509;-85
2021/01/31 01:48:02;;;;;;;;;31.00;28.50;;;;;;;;5025934;28;11604;-89
2021/01/31 01:50:36;;;;;;;;;41.00;30.75;;;;;;;;5026599;28;11642;-94
2021/01/31 01:53:02;;;;;;;;;18.50;18.50;;;;;;;;5029461;28;11551;-88
2021/01/31 01:55:33;;;;;;;;;27.75;27.75;;;;;;;;5026205;28;11567;-92
2021/01/31 01:58:05;;;;;;;;;23.25;18.75;;;;;;;;5032455;28;11523;-84
2021/01/31 02:00:32;;;;;;;;;32.50;27.25;;;;;;;;5022488;28;11576;-93
2021/01/31 02:03:03;;;;;;;;;29.75;28.00;;;;;;;;5032318;28;11501;-82
2021/01/31 02:05:31;;;;;;;;;28.50;27.75;;;;;;;;5036918;28;11497;-78
2021/01/31 02:07:58;;;;;;;;;26.50;26.00;;;;;;;;5038434;28;11521;-78
2021/01/31 02:10:26;;;;;;;;;31.75;26.50;;;;;;;;5023489;28;11533;-80
2021/01/31 02:12:57;;;;;;;;;29.50;26.50;;;;;;;;5028210;28;12305;-82
2021/01/31 02:15:25;;;;;;;;;28.50;25.75;;;;;;;;5023716;28;11515;-79
2021/01/31 02:18:11;;;;;;;;;22.75;20.50;;;;;;;;5028060;28;11580;-77
2021/01/31 02:21:06;;;;;;;;;34.00;29.50;;;;;;;;5011418;28;11479;-81
2021/01/31 02:24:18;;;;;;;;;33.00;25.75;;;;;;;;5026332;28;12310;-80
2021/01/31 02:27:22;;;;;;;;;31.50;30.00;;;;;;;;4992155;28;11588;-85
2021/01/31 02:30:17;;;;;;;;;30.25;25.00;;;;;;;;5033236;28;11610;-79
2021/01/31 02:33:10;;;;;;;;;33.75;30.25;;;;;;;;5024793;28;11525;-83
2021/01/31 02:35:37;;;;;;;;;33.25;27.75;;;;;;;;5034117;28;11634;-88
2021/01/31 02:38:11;;;;;;;;;31.25;31.25;;;;;;;;5031075;28;12315;-81
2021/01/31 02:40:43;;;;;;;;;39.50;29.50;;;;;;;;5014437;28;12412;-84
2021/01/31 02:43:14;;;;;;;;;29.25;29.25;;;;;;;;5009224;28;11603;-81
2021/01/31 02:45:46;;;;;;;;;36.25;34.00;;;;;;;;5031982;28;11630;-82
2021/01/31 02:48:20;;;;;;;;;34.25;30.25;;;;;;;;5023677;28;11589;-82
2021/01/31 02:50:49;;;;;;;;;32.50;29.25;;;;;;;;5027022;28;11738;-83
2021/01/31 02:53:19;;;;;;;;;29.00;27.75;;;;;;;;5032160;28;11656;-82
2021/01/31 02:55:49;;;;;;;;;32.75;30.00;;;;;;;;5009582;28;12341;-77
2021/01/31 02:58:19;;;;;;;;;31.50;28.25;;;;;;;;5028440;28;11637;-79
2021/01/31 03:00:50;;;;;;;;;32.75;28.25;;;;;;;;5027345;28;11597;-80
2021/01/31 03:03:24;;;;;;;;;30.25;24.25;;;;;;;;5035649;28;11635;-83
2021/01/31 03:05:54;;;;;;;;;31.25;26.25;;;;;;;;5025060;28;11638;-83
2021/01/31 03:08:24;;;;;;;;;28.75;26.00;;;;;;;;5033529;28;11640;-79
2021/01/31 03:10:58;;;;;;;;;32.25;28.75;;;;;;;;5024070;28;11592;-81
2021/01/31 03:13:28;;;;;;;;;37.25;30.00;;;;;;;;5005343;28;11802;-85
2021/01/31 03:15:57;;;;;;;;;23.25;21.25;;;;;;;;5029128;28;11619;-79
2021/01/31 03:18:30;;;;;;;;;33.75;27.75;;;;;;;;5029595;28;12367;-85
2021/01/31 03:21:00;;;;;;;;;25.25;19.75;;;;;;;;5031457;28;11661;-84
2021/01/31 03:23:34;;;;;;;;;24.50;22.00;;;;;;;;5026505;28;11565;-84
2021/01/31 03:26:05;;;;;;;;;34.00;28.00;;;;;;;;5008714;28;11611;-78
2021/01/31 03:28:32;;;;;;;;;27.75;24.50;;;;;;;;5008906;28;11584;-82
2021/01/31 03:31:01;;;;;;;;;27.25;21.50;;;;;;;;5026416;28;11528;-87
2021/01/31 03:33:34;;;;;;;;;32.00;25.00;;;;;;;;5031391;28;11650;-88
2021/01/31 03:36:03;;;;;;;;;21.50;21.50;;;;;;;;5027500;28;11586;-89
2021/01/31 03:38:34;;;;;;;;;24.75;21.75;;;;;;;;5031119;28;12383;-83
2021/01/31 03:41:03;;;;;;;;;27.50;24.50;;;;;;;;5027804;28;11572;-83
2021/01/31 03:43:30;;;;;;;;;37.25;25.25;;;;;;;;5032157;28;11565;-84
2021/01/31 03:46:03;;;;;;;;;24.75;24.75;;;;;;;;5035543;28;11557;-82
2021/01/31 03:48:35;;;;;;;;;25.50;19.00;;;;;;;;5013110;28;11620;-86
2021/01/31 03:51:02;;;;;;;;;25.75;20.75;;;;;;;;5035966;28;11576;-80
2021/01/31 03:53:29;;;;;;;;;19.75;18.25;;;;;;;;5029403;28;11626;-87
2021/01/31 03:55:56;;;;;;;;;21.75;20.75;;;;;;;;5038977;28;11629;-83
2021/01/31 03:58:25;;;;;;;;;14.75;13.50;;;;;;;;5018084;28;11624;-81
2021/01/31 04:00:56;;;;;;;;;20.50;14.00;;;;;;;;5025692;28;11423;-82
2021/01/31 04:03:27;;;;;;;;;16.75;15.00;;;;;;;;5003788;28;11570;-79
2021/01/31 04:05:58;;;;;;;;;16.25;16.25;;;;;;;;5027652;28;11507;-85
2021/01/31 04:08:25;;;;;;;;;28.50;21.00;;;;;;;;5028273;28;11596;-89
2021/01/31 04:10:52;;;;;;;;;19.00;19.00;;;;;;;;5024023;28;11595;-88
2021/01/31 04:13:21;;;;;;;;;24.75;16.00;;;;;;;;5030158;28;11530;-88
2021/01/31 04:15:50;;;;;;;;;19.50;19.50;;;;;;;;5032254;28;11515;-84
2021/01/31 04:18:18;;;;;;;;;25.00;13.25;;;;;;;;5034772;28;11544;-82
2021/01/31 04:20:46;;;;;;;;;9.75;9.75;;;;;;;;5031817;28;11468;-86
2021/01/31 04:23:14;;;;;;;;;17.00;14.25;;;;;;;;5030050;28;11504;-81
2021/01/31 04:25:40;;;;;;;;;22.25;19.75;;;;;;;;5030747;28;11491;-82
2021/01/31 04:28:10;;;;;;;;;19.75;19.75;;;;;;;;5031250;28;11483;-82
2021/01/31 04:30:38;;;;;;;;;17.25;17.25;;;;;;;;5043895;28;11449;-89
2021/01/31 04:33:06;;;;;;;;;13.25;13.25;;;;;;;;5037174;28;11635;-88
2021/01/31 04:35:33;;;;;;;;;19.75;19.75;;;;;;;;5031581;28;11531;-83
2021/01/31 04:38:01;;;;;;;;;15.25;12.50;;;;;;;;5028870;28;11566;-76
2021/01/31 04:40:30;;;;;;;;;16.00;14.50;;;;;;;;5028250;28;11483;-79
2021/01/31 04:42:57;;;;;;;;;12.25;12.00;;;;;;;;5026725;28;11502;-86
2021/01/31 04:45:25;;;;;;;;;16.50;13.25;;;;;;;;5038113;28;11495;-77
2021/01/31 04:48:04;;;;;;;;;11.00;11.00;;;;;;;;5026959;28;11519;-81
2021/01/31 04:50:35;;;;;;;;;15.00;15.00;;;;;;;;5020936;28;11551;-75
2021/01/31 04:53:23;;;;;;;;;13.00;10.00;;;;;;;;5025920;28;12293;-80
2021/01/31 04:56:16;;;;;;;;;17.00;14.00;;;;;;;;5038550;28;11516;-83
2021/01/31 04:58:47;;;;;;;;;9.00;8.25;;;;;;;;5021365;28;11528;-87
2021/01/31 05:01:19;;;;;;;;;13.75;12.00;;;;;;;;5025896;28;11501;-84
2021/01/31 05:03:52;;;;;;;;;12.50;11.25;;;;;;;;5034819;28;11611;-82
2021/01/31 05:06:20;;;;;;;;;17.00;9.50;;;;;;;;5031199;28;11448;-82
2021/01/31 05:08:49;;;;;;;;;13.00;12.00;;;;;;;;5034320;28;11515;-85
2021/01/31 05:11:25;;;;;;;;;10.00;10.00;;;;;;;;5004586;28;11553;-85
2021/01/31 05:13:58;;;;;;;;;10.75;6.75;;;;;;;;5005602;28;11593;-76
2021/01/31 05:16:27;;;;;;;;;11.50;11.50;;;;;;;;5002582;28;11561;-81
2021/01/31 05:18:58;;;;;;;;;14.00;10.75;;;;;;;;5006289;28;11574;-85
2021/01/31 05:21:30;;;;;;;;;9.25;9.25;;;;;;;;5005598;28;11530;-82
2021/01/31 05:24:00;;;;;;;;;11.00;7.50;;;;;;;;5003157;28;11537;-84
2021/01/31 05:26:30;;;;;;;;;9.50;9.50;;;;;;;;5005699;28;11644;-86
2021/01/31 05:29:00;;;;;;;;;13.00;12.00;;;;;;;;5009132;28;11535;-78
2021/01/31 05:31:29;;;;;;;;;11.75;11.75;;;;;;;;5004936;28;11543;-84
2021/01/31 05:33:59;;;;;;;;;14.00;11.75;;;;;;;;5007567;28;11554;-86
2021/01/31 05:36:28;;;;;;;;;14.50;10.50;;;;;;;;4989008;28;11575;-85
2021/01/31 05:38:55;;;;;;;;;13.00;10.75;;;;;;;;5011751;28;11655;-90
2021/01/31 05:41:36;;;;;;;;;13.25;11.75;;;;;;;;4998010;28;11547;-82
2021/01/31 05:44:05;;;;;;;;;12.25;10.25;;;;;;;;4994050;28;11636;-87
2021/01/31 05:46:40;;;;;;;;;8.25;8.25;;;;;;;;5007174;28;11763;-85
2021/01/31 05:49:12;;;;;;;;;11.00;9.25;;;;;;;;4997586;28;11615;-90
2021/01/31 05:51:40;;;;;;;;;9.25;9.25;;;;;;;;4994302;28;12320;-80
2021/01/31 05:54:28;;;;;;;;;9.25;8.25;;;;;;;;5003885;28;11556;-81
2021/01/31 05:56:56;;;;;;;;;10.00;10.00;;;;;;;;4998647;28;11533;-84
2021/01/31 05:59:24;;;;;;;;;17.00;12.50;;;;;;;;5006271;28;11561;-85
2021/01/31 06:01:57;;;;;;;;;13.50;12.00;;;;;;;;5007362;28;11659;-83
2021/01/31 06:04:25;;;;;;;;;10.50;10.50;;;;;;;;5011290;28;11549;-87
2021/01/31 06:06:54;;;;;;;;;13.25;9.25;;;;;;;;4996548;28;11543;-84
2021/01/31 06:09:33;;;;;;;;;15.25;11.50;;;;;;;;5010057;28;11467;-79
2021/01/31 06:12:07;;;;;;;;;10.00;10.00;;;;;;;;5028321;28;11503;-79
2021/01/31 06:14:35;;;;;;;;;11.00;11.00;;;;;;;;5025229;28;11495;-79
2021/01/31 06:17:04;;;;;;;;;14.25;13.00;;;;;;;;5016019;28;11488;-79
2021/01/31 06:19:34;;;;;;;;;10.50;10.00;;;;;;;;5023927;28;12244;-77
2021/01/31 06:22:01;;;;;;;;;10.00;10.00;;;;;;;;5024357;28;11481;-76
2021/01/31 06:24:47;;;;;;;;;6.00;6.00;;;;;;;;4989314;28;12200;-78
2021/01/31 06:27:29;;;;;;;;;7.00;7.00;;;;;;;;5031390;28;11491;-82
2021/01/31 06:30:07;;;;;;;;;7.50;5.00;;;;;;;;5019772;28;11492;-78
2021/01/31 06:32:36;;;;;;;;;10.50;10.50;;;;;;;;5021840;28;11430;-81
2021/01/31 06:35:11;;;;;;;;;9.75;8.75;;;;;;;;5011736;28;11548;-82
2021/01/31 06:37:51;;;;;;;;;10.75;10.00;;;;;;;;5014282;28;11543;-80
2021/01/31 06:40:27;;;;;;;;;14.25;14.25;;;;;;;;5015650;28;11563;-84
2021/01/31 06:43:03;;;;;;;;;14.50;14.50;;;;;;;;5012084;28;11580;-83
2021/01/31 06:45:35;;;;;;;;;18.25;13.75;;;;;;;;5014190;28;11539;-79
2021/01/31 06:48:37;;;;;;;;;20.25;20.25;;;;;;;;5013469;28;11647;-84
2021/01/31 06:51:14;;;;;;;;;14.00;11.25;;;;;;;;5013385;28;11577;-85
2021/01/31 06:54:25;;;;;;;;;17.75;13.25;;;;;;;;5014990;28;11569;-82
2021/01/31 06:57:28;;;;;;;;;14.25;14.25;;;;;;;;5013215;28;11545;-81
2021/01/31 07:00:05;;;;;;;;;21.75;17.50;;;;;;;;5001511;28;11519;-83
2021/01/31 07:03:14;;;;;;;;;20.75;16.75;;;;;;;;5012333;28;11535;-86
2021/01/31 07:05:58;;;;;;;;;19.75;16.50;;;;;;;;5002599;28;11550;-83
2021/01/31 07:08:49;;;;;;;;;25.50;22.50;;;;;;;;5014881;28;11646;-79
2021/01/31 07:11:38;;;;;;;;;24.50;16.25;;;;;;;;4989255;28;11603;-82
2021/01/31 07:14:21;;;;;;;;;20.00;16.50;;;;;;;;4995743;28;11634;-85
2021/01/31 07:16:55;;;;;;;;;18.50;16.25;;;;;;;;4995922;28;11566;-84
2021/01/31 07:19:25;;;;;;;;;15.25;15.25;;;;;;;;4994818;28;11580;-85
2021/01/31 07:22:00;;;;;;;;;11.00;10.00;;;;;;;;4996206;28;11588;-76
2021/01/31 07:24:32;;;;;;;;;13.00;10.50;;;;;;;;4978712;28;11610;-85
2021/01/31 07:27:03;;;;;;;;;11.00;11.00;;;;;;;;4994258;28;12353;-76
2021/01/31 07:29:34;;;;;;;;;12.75;12.75;;;;;;;;5000780;28;11623;-84
2021/01/31 07:32:06;;;;;;;;;10.00;10.00;;;;;;;;4992429;28;12334;-86
2021/01/31 07:34:38;;;;;;;;;10.00;10.00;;;;;;;;5004157;28;11615;-85
2021/01/31 07:37:11;;;;;;;;;13.00;10.00;;;;;;;;4976526;28;11522;-85
2021/01/31 07:39:44;;;;;;;;;9.00;9.00;;;;;;;;5008152;28;12565;-76
2021/01/31 07:42:12;;;;;;;;;11.50;9.25;;;;;;;;5008315;28;11545;-76
2021/01/31 07:44:40;;;;;;;;;12.75;12.75;;;;;;;;5001916;28;11649;-76
2021/01/31 07:47:09;;;;;;;;;19.25;15.25;;;;;;;;5008598;28;11637;-76
2021/01/31 07:50:29;;;;;;;;;12.75;9.75;;;;;;;;5003760;28;11578;-77
2021/01/31 07:52:58;;;;;;;;;11.00;11.00;;;;;;;;5001461;28;11660;-76
2021/01/31 07:55:40;;;;;;;;;15.75;13.00;;;;;;;;5004329;28;11647;-77
2021/01/31 07:58:39;;;;;;;;;8.00;8.00;;;;;;;;5005134;28;11651;-75
2021/01/31 08:01:18;;;;;;;;;13.00;12.25;;;;;;;;4943813;28;11473;-76
2021/01/31 08:03:46;;;;;;;;;10.25;10.25;;;;;;;;5001683;28;11618;-78
2021/01/31 08:06:39;;;;;;;;;11.00;11.00;;;;;;;;5005798;28;11639;-77
2021/01/31 08:09:06;;;;;;;;;11.75;11.75;;;;;;;;5027231;28;12418;-78
2021/01/31 08:11:55;;;;;;;;;9.50;9.50;;;;;;;;5024922;28;12305;-76
2021/01/31 08:14:59;;;;;;;;;14.00;12.25;;;;;;;;5033028;28;11481;-75
2021/01/31 08:17:45;;;;;;;;;10.75;10.75;;;;;;;;5045206;28;11545;-75
2021/01/31 08:20:36;;;;;;;;;9.50;8.75;;;;;;;;5012751;28;11586;-75
2021/01/31 08:23:05;;;;;;;;;14.75;13.00;;;;;;;;5023741;28;12190;-71
2021/01/31 08:25:33;;;;;;;;;9.75;8.75;;;;;;;;5025609;28;11630;-72
2021/01/31 08:28:17;;;;;;;;;10.00;10.00;;;;;;;;5023692;28;11641;-70
2021/01/31 08:31:11;;;;;;;;;6.00;6.00;;;;;;;;5026732;28;11498;-69
2021/01/31 08:33:38;;;;;;;;;11.00;9.00;;;;;;;;5027476;28;11432;-70
2021/01/31 08:36:24;;;;;;;;;10.50;10.50;;;;;;;;5021908;28;11658;-70
2021/01/31 08:38:53;;;;;;;;;9.00;9.00;;;;;;;;5029501;28;11550;-70
2021/01/31 08:41:38;;;;;;;;;15.00;13.50;;;;;;;;5027392;28;11565;-70
2021/01/31 08:44:45;;;;;;;;;16.50;13.75;;;;;;;;5019499;28;11538;-69
2021/01/31 08:47:20;;;;;;;;;5.75;5.75;;;;;;;;5028153;28;11569;-70
2021/01/31 08:49:57;;;;;;;;;14.50;10.50;;;;;;;;5007178;28;11518;-70
2021/01/31 08:52:25;;;;;;;;;12.50;12.00;;;;;;;;5017302;28;11579;-70
2021/01/31 08:55:03;;;;;;;;;13.25;10.50;;;;;;;;5032298;28;11539;-69
2021/01/31 08:57:30;;;;;;;;;12.00;12.00;;;;;;;;5024212;28;11526;-70
2021/01/31 09:00:00;;;;;;;;;14.00;9.75;;;;;;;;5033917;28;11512;-69
2021/01/31 09:02:27;;;;;;;;;15.50;15.50;;;;;;;;5024244;28;11542;-70
2021/01/31 09:04:56;;;;;;;;;14.25;13.00;;;;;;;;5026636;28;11628;-70
2021/01/31 09:07:28;;;;;;;;;11.00;11.00;;;;;;;;5022330;28;11584;-70
2021/01/31 09:09:58;;;;;;;;;12.50;9.75;;;;;;;;5033680;28;12377;-70
2021/01/31 09:12:26;;;;;;;;;15.25;15.25;;;;;;;;5029555;28;12246;-70
2021/01/31 09:15:07;;;;;;;;;12.75;12.75;;;;;;;;5017782;28;11625;-70
2021/01/31 09:17:34;;;;;;;;;12.75;10.00;;;;;;;;5034775;28;11611;-70
2021/01/31 09:20:11;;;;;;;;;11.00;11.00;;;;;;;;5021891;28;11734;-70
2021/01/31 09:22:41;;;;;;;;;21.75;17.75;;;;;;;;5031671;28;11584;-70
2021/01/31 09:25:10;;;;;;;;;20.00;17.25;;;;;;;;5032603;28;11622;-70
2021/01/31 09:27:42;;;;;;;;;42.25;37.75;;;;;;;;5031986;28;11670;-70
2021/01/31 09:30:13;;;;;;;;;34.00;27.50;;;;;;;;5024823;28;11652;-70
2021/01/31 09:32:42;;;;;;;;;20.00;18.25;;;;;;;;5029065;28;11621;-70
2021/01/31 09:35:12;;;;;;;;;14.25;11.00;;;;;;;;5007075;28;11616;-70
2021/01/31 09:37:40;;;;;;;;;24.50;19.75;;;;;;;;5028159;28;11628;-69
2021/01/31 09:40:10;;;;;;;;;19.25;17.50;;;;;;;;5033296;28;11684;-69
2021/01/31 09:42:39;;;;;;;;;33.75;29.00;;;;;;;;5030693;28;11625;-69
2021/01/31 09:45:09;;;;;;;;;37.00;30.25;;;;;;;;5012547;28;11628;-70
2021/01/31 09:47:36;;;;;;;;;23.00;18.25;;;;;;;;5026532;28;11692;-70
2021/01/31 09:50:06;;;;;;;;;17.00;16.75;;;;;;;;5007722;28;12636;-69
2021/01/31 09:52:33;;;;;;;;;24.00;18.50;;;;;;;;5007537;28;12459;-70
2021/01/31 09:55:26;;;;;;;;;25.50;23.50;;;;;;;;5019582;28;11600;-69
2021/01/31 09:57:53;;;;;;;;;21.50;20.00;;;;;;;;5020514;28;11648;-69
2021/01/31 10:00:27;;;;;;;;;16.00;12.00;;;;;;;;5027241;28;11609;-69
2021/01/31 10:03:01;;;;;;;;;14.25;12.25;;;;;;;;5036253;28;11565;-69
2021/01/31 10:05:28;;;;;;;;;18.75;18.75;;;;;;;;5031134;28;11548;-69
2021/01/31 10:08:03;;;;;;;;;21.00;17.50;;;;;;;;5042249;28;11624;-69
2021/01/31 10:10:36;;;;;;;;;21.75;15.75;;;;;;;;5038826;28;11626;-69
2021/01/31 10:13:21;;;;;;;;;13.75;12.25;;;;;;;;5030845;28;11770;-70
2021/01/31 10:15:53;;;;;;;;;14.00;12.25;;;;;;;;5042261;28;11601;-69
2021/01/31 10:18:32;;;;;;;;;20.25;20.25;;;;;;;;5043492;28;12843;-69
2021/01/31 10:21:15;;;;;;;;;13.00;13.00;;;;;;;;5026982;28;11597;-71
2021/01/31 10:23:42;;;;;;;;;15.50;11.25;;;;;;;;5018316;28;11582;-69
2021/01/31 10:26:14;;;;;;;;;11.50;9.00;;;;;;;;5041777;28;11627;-69
2021/01/31 10:28:48;;;;;;;;;14.00;14.00;;;;;;;;5028408;28;12248;-69
2021/01/31 10:31:27;;;;;;;;;12.25;12.25;;;;;;;;5030108;28;12309;-70
2021/01/31 10:33:55;;;;;;;;;14.25;12.50;;;;;;;;5037616;28;11567;-71
2021/01/31 10:36:27;;;;;;;;;20.00;13.75;;;;;;;;5033691;28;11664;-72
2021/01/31 10:38:56;;;;;;;;;10.00;10.00;;;;;;;;5025666;28;11576;-68
2021/01/31 10:41:24;;;;;;;;;13.00;13.00;;;;;;;;5010513;28;11625;-67
2021/01/31 10:43:58;;;;;;;;;19.50;17.00;;;;;;;;5036829;28;11572;-69
2021/01/31 10:46:25;;;;;;;;;18.25;17.25;;;;;;;;5023306;28;11544;-67
2021/01/31 10:48:52;;;;;;;;;15.25;14.25;;;;;;;;5029575;28;11557;-69
2021/01/31 10:51:19;;;;;;;;;16.75;10.00;;;;;;;;5039837;28;12450;-68
2021/01/31 10:53:45;;;;;;;;;11.75;11.75;;;;;;;;5027691;28;11633;-70
2021/01/31 10:56:12;;;;;;;;;11.50;10.00;;;;;;;;5036610;28;11675;-69
2021/01/31 10:58:41;;;;;;;;;13.50;11.75;;;;;;;;5037499;28;11588;-70
2021/01/31 11:01:08;;;;;;;;;11.25;9.50;;;;;;;;5024417;28;11505;-70
2021/01/31 11:03:35;;;;;;;;;10.75;10.75;;;;;;;;5034163;28;11529;-70
2021/01/31 11:06:02;;;;;;;;;16.00;14.25;;;;;;;;5030795;28;11593;-69
2021/01/31 11:08:29;;;;;;;;;11.75;11.75;;;;;;;;5021976;28;11550;-69
2021/01/31 11:10:56;;;;;;;;;13.25;13.00;;;;;;;;5021478;28;11489;-69
2021/01/31 11:13:23;;;;;;;;;18.25;14.75;;;;;;;;5026206;28;11565;-69
2021/01/31 11:15:51;;;;;;;;;14.00;14.00;;;;;;;;5038383;28;11515;-69
2021/01/31 11:18:17;;;;;;;;;13.25;12.00;;;;;;;;5022884;28;11608;-69
2021/01/31 11:20:44;;;;;;;;;12.75;9.25;;;;;;;;5022510;28;12296;-70
2021/01/31 11:23:11;;;;;;;;;9.50;9.50;;;;;;;;5021759;28;11460;-69
2021/01/31 11:25:38;;;;;;;;;13.00;13.00;;;;;;;;5025673;28;12044;-69
2021/01/31 11:28:05;;;;;;;;;18.50;14.50;;;;;;;;5025070;28;12315;-69
2021/01/31 11:30:32;;;;;;;;;12.50;12.50;;;;;;;;5025915;28;11510;-70
2021/01/31 11:33:00;;;;;;;;;10.75;10.50;;;;;;;;5023384;28;11504;-69
2021/01/31 11:35:28;;;;;;;;;14.00;14.00;;;;;;;;5029457;28;11486;-70
2021/01/31 11:37:54;;;;;;;;;9.75;9.75;;;;;;;;5040236;28;11474;-69
2021/01/31 11:40:22;;;;;;;;;10.50;9.50;;;;;;;;5034326;28;11476;-70
2021/01/31 11:42:49;;;;;;;;;16.50;13.75;;;;;;;;5043407;28;11555;-69
2021/01/31 11:45:17;;;;;;;;;9.00;9.00;;;;;;;;5031596;28;11475;-69
2021/01/31 11:47:44;;;;;;;;;11.25;9.75;;;;;;;;5028149;28;11448;-70
2021/01/31 11:50:14;;;;;;;;;10.50;9.75;;;;;;;;5027839;28;11354;-69
2021/01/31 11:52:43;;;;;;;;;13.00;13.00;;;;;;;;5030563;28;11290;-69
2021/01/31 11:55:11;;;;;;;;;11.75;10.75;;;;;;;;5027810;28;11263;-69
2021/01/31 11:57:38;;;;;;;;;13.00;13.00;;;;;;;;5026722;28;11482;-69
2021/01/31 12:00:06;;;;;;;;;12.75;12.75;;;;;;;;5024984;28;11620;-69
2021/01/31 12:02:33;;;;;;;;;8.00;8.00;;;;;;;;5026967;28;11510;-70
2021/01/31 12:05:00;;;;;;;;;16.75;16.75;;;;;;;;5028572;28;12049;-70
2021/01/31 12:07:28;;;;;;;;;12.75;9.25;;;;;;;;5026993;28;11491;-69
2021/01/31 12:09:54;;;;;;;;;13.25;13.25;;;;;;;;5023104;28;11465;-70
2021/01/31 12:12:21;;;;;;;;;15.00;13.00;;;;;;;;5025251;28;11493;-70
2021/01/31 12:14:48;;;;;;;;;14.00;11.75;;;;;;;;5025892;28;11547;-70
2021/01/31 12:17:15;;;;;;;;;14.00;11.25;;;;;;;;5026296;28;11563;-69
2021/01/31 12:19:42;;;;;;;;;19.50;19.00;;;;;;;;5024328;28;11163;-69
2021/01/31 12:22:09;;;;;;;;;9.75;9.75;;;;;;;;5033487;28;11556;-69
2021/01/31 12:24:36;;;;;;;;;9.00;9.00;;;;;;;;5026919;28;11300;-69
2021/01/31 12:27:03;;;;;;;;;12.25;10.25;;;;;;;;5028669;28;11205;-70
2021/01/31 12:29:30;;;;;;;;;12.25;10.50;;;;;;;;5030091;28;11580;-69
2021/01/31 12:31:57;;;;;;;;;11.50;11.50;;;;;;;;5031087;28;11133;-70
2021/01/31 12:34:23;;;;;;;;;14.25;14.25;;;;;;;;5025426;28;11298;-70
2021/01/31 12:36:50;;;;;;;;;7.25;7.25;;;;;;;;5026275;28;11174;-69
2021/01/31 12:39:17;;;;;;;;;10.00;7.00;;;;;;;;5007314;28;11879;-71
2021/01/31 12:41:44;;;;;;;;;13.50;13.00;;;;;;;;5026165;28;11243;-70
2021/01/31 12:44:11;;;;;;;;;9.25;6.00;;;;;;;;5026649;28;11138;-70
2021/01/31 12:46:39;;;;;;;;;9.75;9.75;;;;;;;;5025554;28;11013;-70
2021/01/31 12:49:05;;;;;;;;;7.00;7.00;;;;;;;;5023933;28;11012;-69
2021/01/31 12:51:32;;;;;;;;;6.50;6.50;;;;;;;;5026520;28;10843;-70
2021/01/31 12:53:59;;;;;;;;;7.00;7.00;;;;;;;;5025036;28;11683;-70
2021/01/31 12:56:26;;;;;;;;;6.75;6.00;;;;;;;;5011351;28;10873;-70
2021/01/31 12:58:54;;;;;;;;;11.25;9.75;;;;;;;;5027078;28;10849;-69
2021/01/31 13:01:21;;;;;;;;;8.50;8.50;;;;;;;;5009741;28;10797;-69
2021/01/31 13:03:48;;;;;;;;;9.25;9.25;;;;;;;;5023732;28;10977;-71
2021/01/31 13:06:15;;;;;;;;;7.00;7.00;;;;;;;;5026804;28;10909;-70
2021/01/31 13:08:42;;;;;;;;;10.25;7.50;;;;;;;;5037471;28;10832;-70
2021/01/31 13:11:09;;;;;;;;;12.25;11.00;;;;;;;;5027719;28;10699;-69
2021/01/31 13:13:35;;;;;;;;;17.00;13.25;;;;;;;;5023677;28;10899;-70
2021/01/31 13:16:04;;;;;;;;;19.75;14.75;;;;;;;;5024522;28;10881;-71
2021/01/31 13:18:30;;;;;;;;;15.00;15.00;;;;;;;;5027708;28;10888;-70
2021/01/31 13:20:57;;;;;;;;;23.00;15.75;;;;;;;;5013597;28;11033;-71
2021/01/31 13:23:24;;;;;;;;;19.25;14.00;;;;;;;;5026236;28;11160;-70
2021/01/31 13:25:52;;;;;;;;;19.75;19.00;;;;;;;;5017022;28;11062;-70
2021/01/31 13:28:21;;;;;;;;;11.25;11.25;;;;;;;;5030028;28;11136;-71
2021/01/31 13:30:48;;;;;;;;;19.75;16.00;;;;;;;;5018475;28;11508;-71
2021/01/31 13:33:16;;;;;;;;;19.25;16.25;;;;;;;;5025533;28;11063;-71
2021/01/31 13:35:43;;;;;;;;;15.00;15.00;;;;;;;;5024893;28;11066;-71
2021/01/31 13:38:11;;;;;;;;;27.50;19.50;;;;;;;;5025530;28;11064;-72
2021/01/31 13:40:39;;;;;;;;;15.00;12.25;;;;;;;;5038743;28;11213;-70
2021/01/31 13:43:05;;;;;;;;;17.50;17.00;;;;;;;;5046500;28;10969;-70
2021/01/31 13:45:32;;;;;;;;;21.75;18.00;;;;;;;;5034406;28;10907;-70
2021/01/31 13:47:59;;;;;;;;;18.75;16.75;;;;;;;;5045030;28;11082;-70
2021/01/31 13:50:27;;;;;;;;;12.25;12.25;;;;;;;;5029084;28;11059;-70
2021/01/31 13:52:54;;;;;;;;;17.00;15.50;;;;;;;;5024432;28;11140;-69
2021/01/31 13:55:21;;;;;;;;;21.50;17.00;;;;;;;;5025494;28;11090;-71
2021/01/31 13:57:48;;;;;;;;;20.00;20.00;;;;;;;;5024665;28;11972;-70
2021/01/31 14:00:23;;;;;;;;;11.25;10.50;;;;;;;;5024591;28;11147;-71
2021/01/31 14:02:50;;;;;;;;;19.00;13.25;;;;;;;;5023853;28;11677;-70
2021/01/31 14:05:19;;;;;;;;;10.00;10.00;;;;;;;;5025137;28;10875;-70
2021/01/31 14:07:47;;;;;;;;;12.50;9.00;;;;;;;;5038225;28;10863;-72
2021/01/31 14:10:16;;;;;;;;;17.75;15.50;;;;;;;;5038034;28;10801;-71
2021/01/31 14:12:43;;;;;;;;;16.00;12.75;;;;;;;;5044991;28;10815;-70
2021/01/31 14:15:14;;;;;;;;;10.00;10.00;;;;;;;;5026178;28;10898;-72
2021/01/31 14:17:42;;;;;;;;;11.50;11.50;;;;;;;;5043734;28;10674;-69
2021/01/31 14:20:12;;;;;;;;;14.00;12.00;;;;;;;;5023960;28;10750;-70
2021/01/31 14:22:39;;;;;;;;;17.50;13.25;;;;;;;;5024003;28;10753;-69
2021/01/31 14:25:09;;;;;;;;;21.75;18.25;;;;;;;;5027625;28;10774;-71
2021/01/31 14:27:36;;;;;;;;;18.75;14.50;;;;;;;;5026946;28;11185;-72
2021/01/31 14:30:06;;;;;;;;;14.00;10.50;;;;;;;;5034930;28;10896;-72
2021/01/31 14:32:32;;;;;;;;;14.75;14.75;;;;;;;;5041199;28;10899;-70
2021/01/31 14:34:59;;;;;;;;;14.25;13.25;;;;;;;;5025658;28;10794;-70
2021/01/31 14:37:26;;;;;;;;;16.00;16.00;;;;;;;;5009347;28;10746;-70
2021/01/31 14:39:52;;;;;;;;;20.00;18.75;;;;;;;;5023241;28;10992;-69
2021/01/31 14:42:20;;;;;;;;;15.25;15.25;;;;;;;;5013500;28;11707;-70
2021/01/31 14:44:47;;;;;;;;;47.00;39.25;;;;;;;;5019335;28;10978;-70
2021/01/31 14:47:13;;;;;;;;;25.25;25.25;;;;;;;;5023271;28;11534;-69